Current Weather

Brize Norton

Brize Norton, United Kingdom (EGVN)

Report from: Saturday, June 22, 2024 9:20 AM BST
Current time: Saturday, June 22, 2024 9:52 AM BST

Nearby weather – Weather history – Daily summaries
Weather forecast

Temperature16.0°C (60.8°F)
Dew point12.0°C (53.6°F)
Winds 9 kts (4.6 m/s, 10.4 mph) Northwest (310°)
Visibility6.2 mi. (10 km)
Clouds Scattered clouds 2,300 ft. (701 m)
Scattered clouds 2,500 ft. (762 m)
Ceiling: Broken clouds 4,700 ft. (1,433 m)
Altimeter29.88 in.Hg (1012 mB)
Relative humidity77 %
Density altitude357 ft. (109 m)
Flight conditions Visual Meteorological Conditions
Raw dataEGVN 220820Z 31009KT 9999 SCT023 BKN047 16/12 Q1012 BECMG SCT025 RMK WHT BECMG BLU
An error has occurred. This application may no longer respond until reloaded. Reload 🗙